地図

経路データ

SID SEASON NUMBER BASIN SUBBASIN NAME ISO_TIME NATURE LAT LON WMO_WIND WMO_PRES WMO_AGENCY TRACK_TYPE DIST2LAND LANDFALL IFLAG USA_AGENCY USA_ATCF_ID USA_LAT USA_LON USA_RECORD USA_STATUS USA_WIND USA_PRES USA_SSHS USA_R34_NE USA_R34_SE USA_R34_SW USA_R34_NW USA_R50_NE USA_R50_SE USA_R50_SW USA_R50_NW USA_R64_NE USA_R64_SE USA_R64_SW USA_R64_NW USA_POCI USA_ROCI USA_RMW USA_EYE TOKYO_LAT TOKYO_LON TOKYO_GRADE TOKYO_WIND TOKYO_PRES TOKYO_R50_DIR TOKYO_R50_LONG TOKYO_R50_SHORT TOKYO_R30_DIR TOKYO_R30_LONG TOKYO_R30_SHORT TOKYO_LAND CMA_LAT CMA_LON CMA_CAT CMA_WIND CMA_PRES HKO_LAT HKO_LON HKO_CAT HKO_WIND HKO_PRES NEWDELHI_LAT NEWDELHI_LON NEWDELHI_GRADE NEWDELHI_WIND NEWDELHI_PRES NEWDELHI_CI NEWDELHI_DP NEWDELHI_POCI REUNION_LAT REUNION_LON REUNION_TYPE REUNION_WIND REUNION_PRES REUNION_TNUM REUNION_CI REUNION_RMW REUNION_R34_NE REUNION_R34_SE REUNION_R34_SW REUNION_R34_NW REUNION_R50_NE REUNION_R50_SE REUNION_R50_SW REUNION_R50_NW REUNION_R64_NE REUNION_R64_SE REUNION_R64_SW REUNION_R64_NW BOM_LAT BOM_LON BOM_TYPE BOM_WIND BOM_PRES BOM_TNUM BOM_CI BOM_RMW BOM_R34_NE BOM_R34_SE BOM_R34_SW BOM_R34_NW BOM_R50_NE BOM_R50_SE BOM_R50_SW BOM_R50_NW BOM_R64_NE BOM_R64_SE BOM_R64_SW BOM_R64_NW BOM_ROCI BOM_POCI BOM_EYE BOM_POS_METHOD BOM_PRES_METHOD NADI_LAT NADI_LON NADI_CAT NADI_WIND NADI_PRES WELLINGTON_LAT WELLINGTON_LON WELLINGTON_WIND WELLINGTON_PRES DS824_LAT DS824_LON DS824_STAGE DS824_WIND DS824_PRES TD9636_LAT TD9636_LON TD9636_STAGE TD9636_WIND TD9636_PRES TD9635_LAT TD9635_LON TD9635_WIND TD9635_PRES TD9635_ROCI NEUMANN_LAT NEUMANN_LON NEUMANN_CLASS NEUMANN_WIND NEUMANN_PRES MLC_LAT MLC_LON MLC_CLASS MLC_WIND MLC_PRES USA_GUST BOM_GUST BOM_GUST_PER REUNION_GUST REUNION_GUST_PER USA_SEAHGT USA_SEARAD_NE USA_SEARAD_SE USA_SEARAD_SW USA_SEARAD_NW STORM_SPEED STORM_DIR
1886101S11431 1886 8 SI MM NOT_NAMED 1886-04-10 18:00:00 NR -11.3000 70.7000 main 1703 1639 __________O___ -1 -11.3000 70.7000 7 12 243
1886101S11431 1886 8 SI MM NOT_NAMED 1886-04-10 21:00:00 NR -11.5651 70.1636 main 1639 1583 __________P___ -1 -11.5651 70.1636 7 12 243
1886101S11431 1886 8 SI MM NOT_NAMED 1886-04-11 00:00:00 NR -11.8238 69.6512 main 1583 1519 __________P___ -1 -11.8238 69.6512 7 11 242
1886101S11431 1886 8 SI MM NOT_NAMED 1886-04-11 03:00:00 NR -12.0705 69.1882 main 1519 1471 __________P___ -1 -12.0705 69.1882 7 10 240
1886101S11431 1886 8 SI MM NOT_NAMED 1886-04-11 06:00:00 NR -12.3000 68.8000 main 1471 1431 __________O___ -1 -12.3000 68.8000 7 8 237
1886101S11431 1886 8 SI MM NOT_NAMED 1886-04-11 09:00:00 NR -12.5097 68.5010 main 1431 1400 __________P___ -1 -12.5097 68.5010 7 7 232
1886101S11431 1886 8 SI MM NOT_NAMED 1886-04-11 12:00:00 NR -12.7067 68.2617 main 1400 1370 __________P___ -1 -12.7067 68.2617 7 6 229
1886101S11431 1886 8 SI MM NOT_NAMED 1886-04-11 15:00:00 NR -12.9004 68.0416 main 1361 1330 __________P___ -1 -12.9004 68.0416 7 6 229
1886101S11431 1886 8 SI MM NOT_NAMED 1886-04-11 18:00:00 NR -13.1000 67.8000 main 1330 1291 __________O___ -1 -13.1000 67.8000 7 7 233
1886101S11431 1886 8 SI MM NOT_NAMED 1886-04-11 21:00:00 NR -13.3180 67.4626 main 1291 1243 __________P___ -1 -13.3180 67.4626 7 8 237
1886101S11431 1886 8 SI MM NOT_NAMED 1886-04-12 00:00:00 NR -13.5428 67.1001 main 1243 1197 __________P___ -1 -13.5428 67.1001 7 8 237
1886101S11431 1886 8 SI MM NOT_NAMED 1886-04-12 03:00:00 NR -13.7711 66.7376 main 1188 1149 __________P___ -1 -13.7711 66.7376 7 8 236
1886101S11431 1886 8 SI MM NOT_NAMED 1886-04-12 06:00:00 NR -14.0000 66.4000 main 1149 1109 __________O___ -1 -14.0000 66.4000 7 8 232
1886101S11431 1886 8 SI MM NOT_NAMED 1886-04-12 09:00:00 NR -14.2288 66.1250 main 1109 1079 __________P___ -1 -14.2288 66.1250 7 7 228
1886101S11431 1886 8 SI MM NOT_NAMED 1886-04-12 12:00:00 NR -14.4571 65.8772 main 1072 1041 __________P___ -1 -14.4571 65.8772 7 7 226
1886101S11431 1886 8 SI MM NOT_NAMED 1886-04-12 15:00:00 NR -14.6819 65.6407 main 1033 1002 __________P___ -1 -14.6819 65.6407 7 6 226
1886101S11431 1886 8 SI MM NOT_NAMED 1886-04-12 18:00:00 NR -14.9000 65.4000 main 1002 963 __________O___ -1 -14.9000 65.4000 7 7 231
1886101S11431 1886 8 SI MM NOT_NAMED 1886-04-12 21:00:00 NR -15.0991 65.1158 main 963 924 __________P___ -1 -15.0991 65.1158 7 7 235
1886101S11431 1886 8 SI MM NOT_NAMED 1886-04-13 00:00:00 NR -15.2926 64.8274 main 924 893 __________P___ -1 -15.2926 64.8274 7 7 234
1886101S11431 1886 8 SI MM NOT_NAMED 1886-04-13 03:00:00 NR -15.4898 64.5502 main 893 854 __________P___ -1 -15.4898 64.5502 7 7 231
1886101S11431 1886 8 SI MM NOT_NAMED 1886-04-13 06:00:00 NR -15.7000 64.3000 main 854 823 __________O___ -1 -15.7000 64.3000 7 6 225
1886101S11431 1886 8 SI MM NOT_NAMED 1886-04-13 09:00:00 NR -15.9273 64.0920 main 823 787 __________P___ -1 -15.9273 64.0920 7 6 218
1886101S11431 1886 8 SI MM NOT_NAMED 1886-04-13 12:00:00 NR -16.1698 63.9122 main 787 765 __________P___ -1 -16.1698 63.9122 7 6 213
1886101S11431 1886 8 SI MM NOT_NAMED 1886-04-13 15:00:00 NR -16.4274 63.7513 main 765 729 __________P___ -1 -16.4274 63.7513 7 6 209
1886101S11431 1886 8 SI MM NOT_NAMED 1886-04-13 18:00:00 NR -16.7000 63.6000 main 729 693 __________O___ -1 -16.7000 63.6000 7 6 209
1886101S11431 1886 8 SI MM NOT_NAMED 1886-04-13 21:00:00 NR -16.9693 63.4386 main 693 673 __________P___ -1 -16.9693 63.4386 7 6 209
1886101S11431 1886 8 SI MM NOT_NAMED 1886-04-14 00:00:00 NR -17.2550 63.2847 main 667 638 __________P___ -1 -17.2550 63.2847 7 7 206
1886101S11431 1886 8 SI MM NOT_NAMED 1886-04-14 03:00:00 NR -17.5631 63.1386 main 633 608 __________P___ -1 -17.5631 63.1386 7 7 203
1886101S11431 1886 8 SI MM NOT_NAMED 1886-04-14 06:00:00 NR -17.9000 63.0000 main 608 575 __________O___ -1 -17.9000 63.0000 7 8 202
1886101S11431 1886 8 SI MM NOT_NAMED 1886-04-14 09:00:00 NR -18.2672 62.8357 main 570 547 __________P___ -1 -18.2672 62.8357 7 8 201
1886101S11431 1886 8 SI MM NOT_NAMED 1886-04-14 12:00:00 NR -18.6626 62.6832 main 543 520 __________P___ -1 -18.6626 62.6832 7 9 197
1886101S11431 1886 8 SI MM NOT_NAMED 1886-04-14 15:00:00 NR -19.0766 62.5640 main 520 499 __________P___ -1 -19.0766 62.5640 7 9 192
1886101S11431 1886 8 SI MM NOT_NAMED 1886-04-14 18:00:00 NR -19.5000 62.5000 main 499 492 __________O___ -1 -19.5000 62.5000 7 9 183
1886101S11431 1886 8 SI MM NOT_NAMED 1886-04-14 21:00:00 NR -19.9381 62.5128 main 492 490 __________P___ -1 -19.9381 62.5128 7 9 175
1886101S11431 1886 8 SI MM NOT_NAMED 1886-04-15 00:00:00 NR -20.3800 62.5817 main 500 500 __________P___ -1 -20.3800 62.5817 7 9 169
1886101S11431 1886 8 SI MM NOT_NAMED 1886-04-15 03:00:00 NR -20.8069 62.6848 main 513 513 __________P___ -1 -20.8069 62.6848 7 9 166
1886101S11431 1886 8 SI MM NOT_NAMED 1886-04-15 06:00:00 NR -21.2000 62.8000 main 529 529 __________O___ -1 -21.2000 62.8000 7 8 165
1886101S11431 1886 8 SI MM NOT_NAMED 1886-04-15 09:00:00 NR -21.5359 62.8889 main 546 546 __________P___ -1 -21.5359 62.8889 7 7 165
1886101S11431 1886 8 SI MM NOT_NAMED 1886-04-15 12:00:00 NR -21.8374 62.9853 main 564 564 __________P___ -1 -21.8374 62.9853 7 6 162
1886101S11431 1886 8 SI MM NOT_NAMED 1886-04-15 15:00:00 NR -22.1203 63.0890 main 584 584 __________P___ -1 -22.1203 63.0890 7 6 161
1886101S11431 1886 8 SI MM NOT_NAMED 1886-04-15 18:00:00 NR -22.4000 63.2000 main 606 606 __________O___ -1 -22.4000 63.2000 7 6 159
1886101S11431 1886 8 SI MM NOT_NAMED 1886-04-15 21:00:00 NR -22.6891 63.3181 main 628 628 __________P___ -1 -22.6891 63.3181 7 6 159
1886101S11431 1886 8 SI MM NOT_NAMED 1886-04-16 00:00:00 NR -22.9876 63.4419 main 651 651 __________P___ -1 -22.9876 63.4419 7 6 159
1886101S11431 1886 8 SI MM NOT_NAMED 1886-04-16 03:00:00 NR -23.2923 63.5698 main 684 684 __________P___ -1 -23.2923 63.5698 7 7 159
1886101S11431 1886 8 SI MM NOT_NAMED 1886-04-16 06:00:00 NR -23.6000 63.7000 main 708 __________O___ -1 -23.6000 63.7000 7 7 159

IBTrACS Databaseについて

本データベースは、米国NOAAが公開する1842年以降の世界の熱帯低気圧のベストトラックデータアーカイブInternational Best Track Archive for Climate Stewardship (IBTrACS)を、ウェブで閲覧しやすい形式に変換したものです。

最終更新日:2021-10-21